sensor_id;sensor_type;location;lat;lon;timestamp;P1;durP1;ratioP1;P2;durP2;ratioP2
34200;SDS011;20469;55.638;37.670;2023-05-10T00:01:51;9.73;;;4.68;;
34200;SDS011;20469;55.638;37.670;2023-05-10T00:04:18;11.77;;;4.22;;
34200;SDS011;20469;55.638;37.670;2023-05-10T00:06:46;9.95;;;4.22;;
34200;SDS011;20469;55.638;37.670;2023-05-10T00:09:13;11.93;;;4.75;;
34200;SDS011;20469;55.638;37.670;2023-05-10T00:11:40;11.75;;;4.63;;
34200;SDS011;20469;55.638;37.670;2023-05-10T00:14:07;9.68;;;3.80;;
34200;SDS011;20469;55.638;37.670;2023-05-10T00:16:35;9.50;;;4.43;;
34200;SDS011;20469;55.638;37.670;2023-05-10T00:19:02;14.80;;;5.18;;
34200;SDS011;20469;55.638;37.670;2023-05-10T00:21:29;9.70;;;4.45;;
34200;SDS011;20469;55.638;37.670;2023-05-10T00:23:56;11.60;;;4.65;;
34200;SDS011;20469;55.638;37.670;2023-05-10T00:26:24;8.88;;;4.47;;
34200;SDS011;20469;55.638;37.670;2023-05-10T00:28:51;11.35;;;5.10;;
34200;SDS011;20469;55.638;37.670;2023-05-10T00:31:18;9.13;;;4.10;;
34200;SDS011;20469;55.638;37.670;2023-05-10T00:33:45;9.55;;;4.57;;
34200;SDS011;20469;55.638;37.670;2023-05-10T00:36:13;12.93;;;4.32;;
34200;SDS011;20469;55.638;37.670;2023-05-10T00:38:40;10.57;;;4.07;;
34200;SDS011;20469;55.638;37.670;2023-05-10T00:41:07;9.07;;;3.97;;
34200;SDS011;20469;55.638;37.670;2023-05-10T00:43:34;11.52;;;4.38;;
34200;SDS011;20469;55.638;37.670;2023-05-10T00:46:02;10.88;;;4.90;;
34200;SDS011;20469;55.638;37.670;2023-05-10T00:48:30;8.85;;;4.38;;
34200;SDS011;20469;55.638;37.670;2023-05-10T00:50:57;10.57;;;4.63;;
34200;SDS011;20469;55.638;37.670;2023-05-10T00:53:25;8.98;;;3.83;;
34200;SDS011;20469;55.638;37.670;2023-05-10T00:55:53;9.73;;;4.30;;
34200;SDS011;20469;55.638;37.670;2023-05-10T00:58:20;7.47;;;4.20;;
34200;SDS011;20469;55.638;37.670;2023-05-10T01:00:47;11.65;;;4.00;;
34200;SDS011;20469;55.638;37.670;2023-05-10T01:03:16;10.98;;;3.88;;
34200;SDS011;20469;55.638;37.670;2023-05-10T01:05:43;12.77;;;4.30;;
34200;SDS011;20469;55.638;37.670;2023-05-10T01:08:11;10.27;;;4.18;;
34200;SDS011;20469;55.638;37.670;2023-05-10T01:10:38;9.85;;;3.70;;
34200;SDS011;20469;55.638;37.670;2023-05-10T01:13:05;12.88;;;4.25;;
34200;SDS011;20469;55.638;37.670;2023-05-10T01:15:32;9.25;;;3.90;;
34200;SDS011;20469;55.638;37.670;2023-05-10T01:18:00;11.38;;;4.47;;
34200;SDS011;20469;55.638;37.670;2023-05-10T01:20:42;8.40;;;4.03;;
34200;SDS011;20469;55.638;37.670;2023-05-10T01:35:34;10.90;;;4.57;;
34200;SDS011;20469;55.638;37.670;2023-05-10T01:38:07;10.90;;;4.43;;
34200;SDS011;20469;55.638;37.670;2023-05-10T01:40:46;12.70;;;4.68;;
34200;SDS011;20469;55.638;37.670;2023-05-10T01:43:27;11.32;;;4.32;;
34200;SDS011;20469;55.638;37.670;2023-05-10T01:46:02;8.50;;;4.18;;
34200;SDS011;20469;55.638;37.670;2023-05-10T01:48:41;9.93;;;4.15;;
34200;SDS011;20469;55.638;37.670;2023-05-10T01:51:24;9.65;;;4.10;;
34200;SDS011;20469;55.638;37.670;2023-05-10T01:53:58;10.45;;;4.18;;
34200;SDS011;20469;55.638;37.670;2023-05-10T01:56:29;9.82;;;4.70;;
34200;SDS011;20469;55.638;37.670;2023-05-10T01:58:59;10.65;;;4.35;;
34200;SDS011;20469;55.638;37.670;2023-05-10T02:01:29;14.32;;;4.38;;
34200;SDS011;20469;55.638;37.670;2023-05-10T02:03:58;15.27;;;4.47;;
34200;SDS011;20469;55.638;37.670;2023-05-10T02:06:26;10.48;;;4.68;;
34200;SDS011;20469;55.638;37.670;2023-05-10T02:08:54;11.02;;;4.80;;
34200;SDS011;20469;55.638;37.670;2023-05-10T02:11:22;13.13;;;4.63;;
34200;SDS011;20469;55.638;37.670;2023-05-10T02:13:51;10.80;;;4.25;;
34200;SDS011;20469;55.638;37.670;2023-05-10T02:16:20;11.48;;;4.75;;
34200;SDS011;20469;55.638;37.670;2023-05-10T02:18:52;16.75;;;4.68;;
34200;SDS011;20469;55.638;37.670;2023-05-10T02:21:20;13.13;;;4.50;;
34200;SDS011;20469;55.638;37.670;2023-05-10T02:23:49;14.13;;;4.88;;
34200;SDS011;20469;55.638;37.670;2023-05-10T02:26:18;11.77;;;4.88;;
34200;SDS011;20469;55.638;37.670;2023-05-10T02:28:49;17.25;;;5.43;;
34200;SDS011;20469;55.638;37.670;2023-05-10T02:31:18;15.30;;;5.13;;
34200;SDS011;20469;55.638;37.670;2023-05-10T02:33:46;14.98;;;5.07;;
34200;SDS011;20469;55.638;37.670;2023-05-10T02:36:14;15.20;;;5.30;;
34200;SDS011;20469;55.638;37.670;2023-05-10T02:38:44;15.93;;;5.63;;
34200;SDS011;20469;55.638;37.670;2023-05-10T02:41:13;15.90;;;5.63;;
34200;SDS011;20469;55.638;37.670;2023-05-10T02:43:41;20.38;;;5.20;;
34200;SDS011;20469;55.638;37.670;2023-05-10T02:46:09;22.90;;;5.75;;
34200;SDS011;20469;55.638;37.670;2023-05-10T02:48:36;25.75;;;6.20;;
34200;SDS011;20469;55.638;37.670;2023-05-10T02:51:05;33.85;;;6.30;;
34200;SDS011;20469;55.638;37.670;2023-05-10T02:53:35;29.60;;;6.38;;
34200;SDS011;20469;55.638;37.670;2023-05-10T02:56:05;31.88;;;5.43;;
34200;SDS011;20469;55.638;37.670;2023-05-10T02:58:40;24.17;;;5.75;;
34200;SDS011;20469;55.638;37.670;2023-05-10T03:01:07;26.35;;;6.15;;
34200;SDS011;20469;55.638;37.670;2023-05-10T03:03:35;31.27;;;5.55;;
34200;SDS011;20469;55.638;37.670;2023-05-10T03:06:02;24.35;;;5.90;;
34200;SDS011;20469;55.638;37.670;2023-05-10T03:08:29;27.70;;;6.40;;
34200;SDS011;20469;55.638;37.670;2023-05-10T03:11:13;32.33;;;6.32;;
34200;SDS011;20469;55.638;37.670;2023-05-10T03:13:48;27.90;;;6.10;;
34200;SDS011;20469;55.638;37.670;2023-05-10T03:16:41;21.55;;;5.35;;
34200;SDS011;20469;55.638;37.670;2023-05-10T03:19:17;23.83;;;5.97;;
34200;SDS011;20469;55.638;37.670;2023-05-10T03:21:59;14.85;;;5.18;;
34200;SDS011;20469;55.638;37.670;2023-05-10T03:24:30;15.90;;;5.07;;
34200;SDS011;20469;55.638;37.670;2023-05-10T03:27:00;15.10;;;5.05;;
34200;SDS011;20469;55.638;37.670;2023-05-10T03:29:29;13.50;;;4.80;;
34200;SDS011;20469;55.638;37.670;2023-05-10T03:32:00;20.38;;;5.40;;
34200;SDS011;20469;55.638;37.670;2023-05-10T03:34:28;22.33;;;6.25;;
34200;SDS011;20469;55.638;37.670;2023-05-10T03:36:57;18.10;;;5.53;;
34200;SDS011;20469;55.638;37.670;2023-05-10T03:39:25;17.13;;;5.65;;
34200;SDS011;20469;55.638;37.670;2023-05-10T03:41:52;10.52;;;5.60;;
34200;SDS011;20469;55.638;37.670;2023-05-10T03:44:19;13.93;;;5.07;;
34200;SDS011;20469;55.638;37.670;2023-05-10T03:46:47;25.25;;;5.85;;
34200;SDS011;20469;55.638;37.670;2023-05-10T03:49:14;16.55;;;5.70;;
34200;SDS011;20469;55.638;37.670;2023-05-10T03:52:00;15.20;;;5.60;;
34200;SDS011;20469;55.638;37.670;2023-05-10T03:54:27;15.35;;;5.40;;
34200;SDS011;20469;55.638;37.670;2023-05-10T03:56:54;15.18;;;5.35;;
34200;SDS011;20469;55.638;37.670;2023-05-10T03:59:21;14.68;;;5.20;;
34200;SDS011;20469;55.638;37.670;2023-05-10T04:01:48;15.27;;;5.43;;
34200;SDS011;20469;55.638;37.670;2023-05-10T04:04:16;14.02;;;4.90;;
34200;SDS011;20469;55.638;37.670;2023-05-10T04:06:45;15.43;;;5.13;;
34200;SDS011;20469;55.638;37.670;2023-05-10T04:09:12;14.40;;;4.43;;
34200;SDS011;20469;55.638;37.670;2023-05-10T04:11:40;17.10;;;4.93;;
34200;SDS011;20469;55.638;37.670;2023-05-10T04:14:08;15.13;;;5.55;;
34200;SDS011;20469;55.638;37.670;2023-05-10T04:16:35;13.88;;;5.00;;
34200;SDS011;20469;55.638;37.670;2023-05-10T04:19:03;9.85;;;4.40;;
34200;SDS011;20469;55.638;37.670;2023-05-10T04:21:30;11.60;;;4.15;;
34200;SDS011;20469;55.638;37.670;2023-05-10T04:23:57;9.90;;;4.25;;
34200;SDS011;20469;55.638;37.670;2023-05-10T04:26:24;12.32;;;4.10;;
34200;SDS011;20469;55.638;37.670;2023-05-10T04:28:52;15.10;;;5.00;;
34200;SDS011;20469;55.638;37.670;2023-05-10T04:31:19;13.52;;;4.28;;
34200;SDS011;20469;55.638;37.670;2023-05-10T04:33:46;17.80;;;4.03;;
34200;SDS011;20469;55.638;37.670;2023-05-10T04:36:13;12.18;;;3.72;;
34200;SDS011;20469;55.638;37.670;2023-05-10T04:38:41;7.65;;;3.42;;
34200;SDS011;20469;55.638;37.670;2023-05-10T04:41:09;7.97;;;3.30;;
34200;SDS011;20469;55.638;37.670;2023-05-10T04:43:38;7.72;;;3.55;;
34200;SDS011;20469;55.638;37.670;2023-05-10T04:46:05;11.63;;;3.30;;
34200;SDS011;20469;55.638;37.670;2023-05-10T04:48:33;7.32;;;3.25;;
34200;SDS011;20469;55.638;37.670;2023-05-10T04:51:01;6.50;;;2.78;;
34200;SDS011;20469;55.638;37.670;2023-05-10T04:53:30;5.00;;;2.75;;
34200;SDS011;20469;55.638;37.670;2023-05-10T04:55:57;8.73;;;2.92;;
34200;SDS011;20469;55.638;37.670;2023-05-10T04:58:24;4.97;;;2.30;;
34200;SDS011;20469;55.638;37.670;2023-05-10T05:00:51;5.22;;;2.42;;
34200;SDS011;20469;55.638;37.670;2023-05-10T05:03:18;10.25;;;3.25;;
34200;SDS011;20469;55.638;37.670;2023-05-10T05:05:46;5.90;;;1.90;;
34200;SDS011;20469;55.638;37.670;2023-05-10T05:08:13;5.55;;;2.65;;
34200;SDS011;20469;55.638;37.670;2023-05-10T05:10:40;4.32;;;3.28;;
34200;SDS011;20469;55.638;37.670;2023-05-10T05:13:07;8.95;;;2.35;;
34200;SDS011;20469;55.638;37.670;2023-05-10T05:15:34;3.70;;;3.10;;
34200;SDS011;20469;55.638;37.670;2023-05-10T05:18:02;3.70;;;2.58;;
34200;SDS011;20469;55.638;37.670;2023-05-10T05:20:31;4.68;;;2.22;;
34200;SDS011;20469;55.638;37.670;2023-05-10T05:23:00;4.30;;;2.70;;
34200;SDS011;20469;55.638;37.670;2023-05-10T05:25:27;4.97;;;3.28;;
34200;SDS011;20469;55.638;37.670;2023-05-10T05:27:54;8.75;;;2.10;;
34200;SDS011;20469;55.638;37.670;2023-05-10T05:30:22;9.05;;;2.25;;
34200;SDS011;20469;55.638;37.670;2023-05-10T05:32:49;7.93;;;2.28;;
34200;SDS011;20469;55.638;37.670;2023-05-10T05:35:16;7.10;;;2.30;;
34200;SDS011;20469;55.638;37.670;2023-05-10T05:37:44;7.88;;;2.40;;
34200;SDS011;20469;55.638;37.670;2023-05-10T05:40:14;8.88;;;3.15;;
34200;SDS011;20469;55.638;37.670;2023-05-10T05:42:41;5.03;;;1.98;;
34200;SDS011;20469;55.638;37.670;2023-05-10T05:45:09;3.08;;;2.10;;
34200;SDS011;20469;55.638;37.670;2023-05-10T05:47:39;5.13;;;3.20;;
34200;SDS011;20469;55.638;37.670;2023-05-10T05:50:07;3.38;;;2.10;;
34200;SDS011;20469;55.638;37.670;2023-05-10T05:52:34;7.85;;;3.72;;
34200;SDS011;20469;55.638;37.670;2023-05-10T05:55:02;7.65;;;2.42;;
34200;SDS011;20469;55.638;37.670;2023-05-10T05:57:30;6.53;;;2.42;;
34200;SDS011;20469;55.638;37.670;2023-05-10T05:59:57;8.30;;;2.90;;
34200;SDS011;20469;55.638;37.670;2023-05-10T06:02:25;6.38;;;2.50;;
34200;SDS011;20469;55.638;37.670;2023-05-10T06:04:53;4.70;;;2.63;;
34200;SDS011;20469;55.638;37.670;2023-05-10T06:07:20;6.95;;;2.80;;
34200;SDS011;20469;55.638;37.670;2023-05-10T06:09:48;6.65;;;2.30;;
34200;SDS011;20469;55.638;37.670;2023-05-10T06:12:15;6.40;;;3.10;;
34200;SDS011;20469;55.638;37.670;2023-05-10T06:14:42;4.20;;;2.10;;
34200;SDS011;20469;55.638;37.670;2023-05-10T06:17:09;5.00;;;2.50;;
34200;SDS011;20469;55.638;37.670;2023-05-10T06:19:36;5.43;;;2.30;;
34200;SDS011;20469;55.638;37.670;2023-05-10T06:22:03;7.13;;;2.45;;
34200;SDS011;20469;55.638;37.670;2023-05-10T06:24:31;6.07;;;2.15;;
34200;SDS011;20469;55.638;37.670;2023-05-10T06:26:58;4.15;;;1.88;;
34200;SDS011;20469;55.638;37.670;2023-05-10T06:29:26;8.25;;;2.88;;
34200;SDS011;20469;55.638;37.670;2023-05-10T06:31:53;5.28;;;2.38;;
34200;SDS011;20469;55.638;37.670;2023-05-10T06:34:21;7.82;;;3.10;;
34200;SDS011;20469;55.638;37.670;2023-05-10T06:36:49;7.00;;;2.40;;
34200;SDS011;20469;55.638;37.670;2023-05-10T06:39:16;5.13;;;1.88;;
34200;SDS011;20469;55.638;37.670;2023-05-10T06:41:43;6.15;;;2.92;;
34200;SDS011;20469;55.638;37.670;2023-05-10T06:44:11;7.82;;;2.72;;
34200;SDS011;20469;55.638;37.670;2023-05-10T06:46:39;41.97;;;5.55;;
34200;SDS011;20469;55.638;37.670;2023-05-10T06:49:07;13.48;;;3.67;;
34200;SDS011;20469;55.638;37.670;2023-05-10T06:51:34;9.43;;;2.20;;
34200;SDS011;20469;55.638;37.670;2023-05-10T06:54:01;9.60;;;2.50;;
34200;SDS011;20469;55.638;37.670;2023-05-10T06:56:29;49.17;;;6.20;;
34200;SDS011;20469;55.638;37.670;2023-05-10T06:58:56;14.40;;;3.70;;
34200;SDS011;20469;55.638;37.670;2023-05-10T07:01:24;7.75;;;2.25;;
34200;SDS011;20469;55.638;37.670;2023-05-10T07:03:51;6.32;;;3.08;;
34200;SDS011;20469;55.638;37.670;2023-05-10T07:06:18;12.27;;;2.65;;
34200;SDS011;20469;55.638;37.670;2023-05-10T07:08:59;7.97;;;2.03;;
34200;SDS011;20469;55.638;37.670;2023-05-10T07:11:27;8.90;;;3.05;;
34200;SDS011;20469;55.638;37.670;2023-05-10T07:13:54;6.80;;;2.13;;
34200;SDS011;20469;55.638;37.670;2023-05-10T07:16:21;4.57;;;2.92;;
34200;SDS011;20469;55.638;37.670;2023-05-10T07:18:48;4.13;;;1.70;;
34200;SDS011;20469;55.638;37.670;2023-05-10T07:21:17;9.88;;;2.38;;
34200;SDS011;20469;55.638;37.670;2023-05-10T07:23:44;12.13;;;2.60;;
34200;SDS011;20469;55.638;37.670;2023-05-10T07:26:11;8.38;;;2.10;;
34200;SDS011;20469;55.638;37.670;2023-05-10T07:28:38;4.18;;;1.85;;
34200;SDS011;20469;55.638;37.670;2023-05-10T07:31:05;2.40;;;1.65;;
34200;SDS011;20469;55.638;37.670;2023-05-10T07:33:33;5.72;;;1.85;;
34200;SDS011;20469;55.638;37.670;2023-05-10T07:36:00;5.00;;;2.58;;
34200;SDS011;20469;55.638;37.670;2023-05-10T07:38:27;4.20;;;1.92;;
34200;SDS011;20469;55.638;37.670;2023-05-10T07:40:54;3.75;;;2.22;;
34200;SDS011;20469;55.638;37.670;2023-05-10T07:43:21;6.20;;;2.53;;
34200;SDS011;20469;55.638;37.670;2023-05-10T07:45:48;5.30;;;1.90;;
34200;SDS011;20469;55.638;37.670;2023-05-10T07:48:16;4.45;;;2.35;;
34200;SDS011;20469;55.638;37.670;2023-05-10T07:50:43;6.05;;;2.65;;
34200;SDS011;20469;55.638;37.670;2023-05-10T07:53:10;2.58;;;1.83;;
34200;SDS011;20469;55.638;37.670;2023-05-10T07:55:37;7.20;;;1.80;;
34200;SDS011;20469;55.638;37.670;2023-05-10T07:58:05;2.40;;;1.92;;
34200;SDS011;20469;55.638;37.670;2023-05-10T08:00:32;3.00;;;1.95;;
34200;SDS011;20469;55.638;37.670;2023-05-10T08:03:00;5.70;;;1.92;;
34200;SDS011;20469;55.638;37.670;2023-05-10T08:05:27;3.00;;;1.73;;
34200;SDS011;20469;55.638;37.670;2023-05-10T08:07:55;4.13;;;1.98;;
34200;SDS011;20469;55.638;37.670;2023-05-10T08:10:22;4.03;;;2.10;;
34200;SDS011;20469;55.638;37.670;2023-05-10T08:12:50;4.28;;;1.95;;
34200;SDS011;20469;55.638;37.670;2023-05-10T08:15:18;5.65;;;1.83;;
34200;SDS011;20469;55.638;37.670;2023-05-10T08:17:45;3.10;;;1.83;;
34200;SDS011;20469;55.638;37.670;2023-05-10T08:20:12;3.65;;;1.58;;
34200;SDS011;20469;55.638;37.670;2023-05-10T08:22:43;5.55;;;1.90;;
34200;SDS011;20469;55.638;37.670;2023-05-10T08:25:10;3.10;;;1.80;;
34200;SDS011;20469;55.638;37.670;2023-05-10T08:27:37;2.95;;;1.92;;
34200;SDS011;20469;55.638;37.670;2023-05-10T08:30:04;5.15;;;2.40;;
34200;SDS011;20469;55.638;37.670;2023-05-10T08:32:32;6.03;;;1.92;;
34200;SDS011;20469;55.638;37.670;2023-05-10T08:35:01;7.32;;;2.58;;
34200;SDS011;20469;55.638;37.670;2023-05-10T08:37:31;3.78;;;1.83;;
34200;SDS011;20469;55.638;37.670;2023-05-10T08:39:59;3.15;;;1.80;;
34200;SDS011;20469;55.638;37.670;2023-05-10T08:42:30;3.97;;;1.60;;
34200;SDS011;20469;55.638;37.670;2023-05-10T08:45:01;4.70;;;1.52;;
34200;SDS011;20469;55.638;37.670;2023-05-10T08:47:31;3.97;;;1.48;;
34200;SDS011;20469;55.638;37.670;2023-05-10T08:49:58;5.93;;;2.03;;
34200;SDS011;20469;55.638;37.670;2023-05-10T08:52:27;2.70;;;1.90;;
34200;SDS011;20469;55.638;37.670;2023-05-10T08:54:56;2.65;;;1.50;;
34200;SDS011;20469;55.638;37.670;2023-05-10T08:57:23;1.70;;;1.30;;
34200;SDS011;20469;55.638;37.670;2023-05-10T08:59:51;2.72;;;1.40;;
34200;SDS011;20469;55.638;37.670;2023-05-10T09:02:18;6.00;;;1.45;;
34200;SDS011;20469;55.638;37.670;2023-05-10T09:04:47;2.55;;;1.30;;
34200;SDS011;20469;55.638;37.670;2023-05-10T09:07:15;3.45;;;1.25;;
34200;SDS011;20469;55.638;37.670;2023-05-10T09:09:43;2.55;;;1.75;;
34200;SDS011;20469;55.638;37.670;2023-05-10T09:12:12;1.50;;;1.10;;
34200;SDS011;20469;55.638;37.670;2023-05-10T09:14:42;2.17;;;1.33;;
34200;SDS011;20469;55.638;37.670;2023-05-10T09:17:11;3.50;;;1.50;;
34200;SDS011;20469;55.638;37.670;2023-05-10T09:19:39;1.50;;;1.40;;
34200;SDS011;20469;55.638;37.670;2023-05-10T09:22:06;2.78;;;1.63;;
34200;SDS011;20469;55.638;37.670;2023-05-10T09:24:33;3.83;;;1.55;;
34200;SDS011;20469;55.638;37.670;2023-05-10T09:27:01;3.47;;;1.52;;
34200;SDS011;20469;55.638;37.670;2023-05-10T09:29:38;7.78;;;1.70;;
34200;SDS011;20469;55.638;37.670;2023-05-10T09:32:07;6.97;;;1.88;;
34200;SDS011;20469;55.638;37.670;2023-05-10T09:34:34;2.42;;;1.50;;
34200;SDS011;20469;55.638;37.670;2023-05-10T09:37:02;2.83;;;1.50;;
34200;SDS011;20469;55.638;37.670;2023-05-10T09:39:33;5.03;;;1.83;;
34200;SDS011;20469;55.638;37.670;2023-05-10T09:42:02;2.97;;;1.60;;
34200;SDS011;20469;55.638;37.670;2023-05-10T09:44:39;3.03;;;1.77;;
34200;SDS011;20469;55.638;37.670;2023-05-10T09:47:07;3.90;;;2.10;;
34200;SDS011;20469;55.638;37.670;2023-05-10T09:49:34;3.85;;;1.90;;
34200;SDS011;20469;55.638;37.670;2023-05-10T09:52:02;3.28;;;2.00;;
34200;SDS011;20469;55.638;37.670;2023-05-10T09:54:30;4.22;;;1.95;;
34200;SDS011;20469;55.638;37.670;2023-05-10T09:56:58;5.15;;;1.83;;
34200;SDS011;20469;55.638;37.670;2023-05-10T09:59:27;6.72;;;2.20;;
34200;SDS011;20469;55.638;37.670;2023-05-10T10:01:59;6.47;;;2.00;;
34200;SDS011;20469;55.638;37.670;2023-05-10T10:04:27;2.72;;;1.75;;
34200;SDS011;20469;55.638;37.670;2023-05-10T10:07:01;5.90;;;2.38;;
34200;SDS011;20469;55.638;37.670;2023-05-10T10:09:31;3.25;;;1.80;;
34200;SDS011;20469;55.638;37.670;2023-05-10T10:12:02;6.65;;;1.85;;
34200;SDS011;20469;55.638;37.670;2023-05-10T10:14:30;7.72;;;2.65;;
34200;SDS011;20469;55.638;37.670;2023-05-10T10:16:57;3.50;;;2.20;;
34200;SDS011;20469;55.638;37.670;2023-05-10T10:19:30;3.42;;;2.08;;
34200;SDS011;20469;55.638;37.670;2023-05-10T10:22:00;6.25;;;1.98;;
34200;SDS011;20469;55.638;37.670;2023-05-10T10:24:27;3.80;;;2.20;;
34200;SDS011;20469;55.638;37.670;2023-05-10T10:26:55;4.03;;;2.10;;
34200;SDS011;20469;55.638;37.670;2023-05-10T10:29:39;4.57;;;2.33;;
34200;SDS011;20469;55.638;37.670;2023-05-10T10:32:25;4.60;;;2.28;;
34200;SDS011;20469;55.638;37.670;2023-05-10T10:35:16;4.25;;;2.65;;
34200;SDS011;20469;55.638;37.670;2023-05-10T10:37:44;6.28;;;2.67;;
34200;SDS011;20469;55.638;37.670;2023-05-10T10:40:32;7.43;;;2.75;;
34200;SDS011;20469;55.638;37.670;2023-05-10T10:46:24;7.25;;;2.40;;
34200;SDS011;20469;55.638;37.670;2023-05-10T10:48:48;5.00;;;2.50;;
34200;SDS011;20469;55.638;37.670;2023-05-10T10:52:12;6.32;;;2.53;;
34200;SDS011;20469;55.638;37.670;2023-05-10T10:57:54;3.90;;;1.90;;
34200;SDS011;20469;55.638;37.670;2023-05-10T11:00:31;6.18;;;2.28;;
34200;SDS011;20469;55.638;37.670;2023-05-10T11:03:06;3.42;;;2.70;;
34200;SDS011;20469;55.638;37.670;2023-05-10T11:08:11;5.57;;;2.38;;
34200;SDS011;20469;55.638;37.670;2023-05-10T11:13:33;3.70;;;2.97;;
34200;SDS011;20469;55.638;37.670;2023-05-10T11:18:51;3.60;;;2.25;;
34200;SDS011;20469;55.638;37.670;2023-05-10T11:21:34;5.78;;;2.17;;
34200;SDS011;20469;55.638;37.670;2023-05-10T11:24:16;6.38;;;2.10;;
34200;SDS011;20469;55.638;37.670;2023-05-10T11:26:45;4.07;;;2.10;;
34200;SDS011;20469;55.638;37.670;2023-05-10T11:29:12;4.20;;;2.03;;
34200;SDS011;20469;55.638;37.670;2023-05-10T11:31:43;4.25;;;2.10;;
34200;SDS011;20469;55.638;37.670;2023-05-10T11:34:30;3.42;;;2.65;;
34200;SDS011;20469;55.638;37.670;2023-05-10T11:37:00;4.22;;;3.08;;
34200;SDS011;20469;55.638;37.670;2023-05-10T11:39:31;2.28;;;2.08;;
34200;SDS011;20469;55.638;37.670;2023-05-10T11:41:59;4.00;;;2.20;;
34200;SDS011;20469;55.638;37.670;2023-05-10T11:44:30;4.63;;;2.03;;
34200;SDS011;20469;55.638;37.670;2023-05-10T11:47:01;4.63;;;2.35;;
34200;SDS011;20469;55.638;37.670;2023-05-10T11:49:29;4.70;;;1.88;;
34200;SDS011;20469;55.638;37.670;2023-05-10T11:52:03;4.25;;;2.15;;
34200;SDS011;20469;55.638;37.670;2023-05-10T11:54:32;7.78;;;2.20;;
34200;SDS011;20469;55.638;37.670;2023-05-10T11:57:01;3.30;;;2.17;;
34200;SDS011;20469;55.638;37.670;2023-05-10T11:59:29;6.88;;;2.42;;
34200;SDS011;20469;55.638;37.670;2023-05-10T12:01:56;5.47;;;2.45;;
34200;SDS011;20469;55.638;37.670;2023-05-10T12:04:23;4.68;;;2.10;;
34200;SDS011;20469;55.638;37.670;2023-05-10T12:06:52;5.43;;;2.58;;
34200;SDS011;20469;55.638;37.670;2023-05-10T12:09:19;5.53;;;2.00;;
34200;SDS011;20469;55.638;37.670;2023-05-10T12:12:05;6.50;;;2.42;;
34200;SDS011;20469;55.638;37.670;2023-05-10T12:14:36;5.13;;;3.60;;
34200;SDS011;20469;55.638;37.670;2023-05-10T12:17:03;6.43;;;2.10;;
34200;SDS011;20469;55.638;37.670;2023-05-10T12:19:37;3.30;;;2.08;;
34200;SDS011;20469;55.638;37.670;2023-05-10T12:22:05;9.90;;;2.40;;
34200;SDS011;20469;55.638;37.670;2023-05-10T12:24:36;3.83;;;1.83;;
34200;SDS011;20469;55.638;37.670;2023-05-10T12:27:05;4.10;;;2.13;;
34200;SDS011;20469;55.638;37.670;2023-05-10T12:29:34;6.28;;;2.50;;
34200;SDS011;20469;55.638;37.670;2023-05-10T12:32:02;2.55;;;2.00;;
34200;SDS011;20469;55.638;37.670;2023-05-10T12:34:30;3.92;;;2.00;;
34200;SDS011;20469;55.638;37.670;2023-05-10T12:36:58;8.55;;;2.00;;
34200;SDS011;20469;55.638;37.670;2023-05-10T12:39:25;4.47;;;2.20;;
34200;SDS011;20469;55.638;37.670;2023-05-10T12:42:03;3.65;;;2.10;;
34200;SDS011;20469;55.638;37.670;2023-05-10T12:44:31;3.38;;;1.90;;
34200;SDS011;20469;55.638;37.670;2023-05-10T12:46:58;3.75;;;2.05;;
34200;SDS011;20469;55.638;37.670;2023-05-10T12:49:25;3.95;;;2.03;;
34200;SDS011;20469;55.638;37.670;2023-05-10T12:51:52;4.82;;;2.55;;
34200;SDS011;20469;55.638;37.670;2023-05-10T12:54:19;3.00;;;2.00;;
34200;SDS011;20469;55.638;37.670;2023-05-10T12:56:46;4.75;;;1.85;;
34200;SDS011;20469;55.638;37.670;2023-05-10T12:59:14;5.68;;;1.90;;
34200;SDS011;20469;55.638;37.670;2023-05-10T13:01:41;2.92;;;2.10;;
34200;SDS011;20469;55.638;37.670;2023-05-10T13:04:08;4.47;;;1.98;;
34200;SDS011;20469;55.638;37.670;2023-05-10T13:06:36;3.38;;;1.80;;
34200;SDS011;20469;55.638;37.670;2023-05-10T13:09:03;3.92;;;2.30;;
34200;SDS011;20469;55.638;37.670;2023-05-10T13:11:30;3.95;;;1.90;;
34200;SDS011;20469;55.638;37.670;2023-05-10T13:13:58;2.15;;;1.63;;
34200;SDS011;20469;55.638;37.670;2023-05-10T13:16:25;3.95;;;1.88;;
34200;SDS011;20469;55.638;37.670;2023-05-10T13:18:53;2.17;;;1.90;;
34200;SDS011;20469;55.638;37.670;2023-05-10T13:21:20;4.00;;;1.90;;
34200;SDS011;20469;55.638;37.670;2023-05-10T13:23:48;5.15;;;1.90;;
34200;SDS011;20469;55.638;37.670;2023-05-10T13:26:15;3.60;;;1.80;;
34200;SDS011;20469;55.638;37.670;2023-05-10T13:28:43;2.97;;;1.90;;
34200;SDS011;20469;55.638;37.670;2023-05-10T13:31:10;3.00;;;1.60;;
34200;SDS011;20469;55.638;37.670;2023-05-10T13:33:37;3.17;;;1.70;;
34200;SDS011;20469;55.638;37.670;2023-05-10T13:36:04;2.63;;;1.73;;
34200;SDS011;20469;55.638;37.670;2023-05-10T13:38:32;2.47;;;1.90;;
34200;SDS011;20469;55.638;37.670;2023-05-10T13:40:59;4.32;;;1.88;;
34200;SDS011;20469;55.638;37.670;2023-05-10T13:43:27;3.00;;;1.92;;
34200;SDS011;20469;55.638;37.670;2023-05-10T13:45:55;3.78;;;1.98;;
34200;SDS011;20469;55.638;37.670;2023-05-10T13:48:23;5.10;;;1.80;;
34200;SDS011;20469;55.638;37.670;2023-05-10T13:50:50;4.68;;;2.15;;
34200;SDS011;20469;55.638;37.670;2023-05-10T13:53:17;5.28;;;1.98;;
34200;SDS011;20469;55.638;37.670;2023-05-10T13:55:44;7.05;;;3.25;;
34200;SDS011;20469;55.638;37.670;2023-05-10T13:58:12;3.60;;;2.30;;
34200;SDS011;20469;55.638;37.670;2023-05-10T14:00:39;6.53;;;2.42;;
34200;SDS011;20469;55.638;37.670;2023-05-10T14:03:06;6.07;;;2.78;;
34200;SDS011;20469;55.638;37.670;2023-05-10T14:05:35;6.28;;;2.97;;
34200;SDS011;20469;55.638;37.670;2023-05-10T14:08:03;5.03;;;2.65;;
34200;SDS011;20469;55.638;37.670;2023-05-10T14:10:30;4.07;;;2.13;;
34200;SDS011;20469;55.638;37.670;2023-05-10T14:12:57;4.75;;;2.10;;
34200;SDS011;20469;55.638;37.670;2023-05-10T14:15:24;4.88;;;1.98;;
34200;SDS011;20469;55.638;37.670;2023-05-10T14:17:52;6.07;;;2.70;;
34200;SDS011;20469;55.638;37.670;2023-05-10T14:20:19;3.90;;;2.08;;
34200;SDS011;20469;55.638;37.670;2023-05-10T14:22:50;4.70;;;2.90;;
34200;SDS011;20469;55.638;37.670;2023-05-10T14:25:17;2.58;;;2.00;;
34200;SDS011;20469;55.638;37.670;2023-05-10T14:27:44;3.97;;;2.10;;
34200;SDS011;20469;55.638;37.670;2023-05-10T14:30:12;5.18;;;2.25;;
34200;SDS011;20469;55.638;37.670;2023-05-10T14:32:39;3.53;;;2.22;;
34200;SDS011;20469;55.638;37.670;2023-05-10T14:35:06;3.10;;;2.67;;
34200;SDS011;20469;55.638;37.670;2023-05-10T14:37:37;3.42;;;1.92;;
34200;SDS011;20469;55.638;37.670;2023-05-10T14:40:05;3.58;;;1.77;;
34200;SDS011;20469;55.638;37.670;2023-05-10T14:42:33;3.13;;;2.20;;
34200;SDS011;20469;55.638;37.670;2023-05-10T14:45:00;4.85;;;2.10;;
34200;SDS011;20469;55.638;37.670;2023-05-10T14:47:31;3.80;;;2.20;;
34200;SDS011;20469;55.638;37.670;2023-05-10T14:49:58;5.45;;;2.10;;
34200;SDS011;20469;55.638;37.670;2023-05-10T14:52:25;4.43;;;2.10;;
34200;SDS011;20469;55.638;37.670;2023-05-10T14:54:53;5.28;;;1.98;;
34200;SDS011;20469;55.638;37.670;2023-05-10T14:57:21;6.78;;;2.40;;
34200;SDS011;20469;55.638;37.670;2023-05-10T14:59:48;3.83;;;2.13;;
34200;SDS011;20469;55.638;37.670;2023-05-10T15:02:16;6.00;;;2.70;;
34200;SDS011;20469;55.638;37.670;2023-05-10T15:04:44;6.07;;;2.10;;
34200;SDS011;20469;55.638;37.670;2023-05-10T15:07:11;8.13;;;2.65;;
34200;SDS011;20469;55.638;37.670;2023-05-10T15:09:41;6.55;;;2.40;;